createdAt,value
2022-09-10T00:01:59.359Z,100479.66
2022-09-10T00:04:30.176Z,100494.19
2022-09-10T00:06:59.989Z,100489.06
2022-09-10T00:09:29.605Z,100481.38
2022-09-10T00:11:59.411Z,100481.34
2022-09-10T00:14:31.623Z,100483.06
2022-09-10T00:17:01.803Z,100482.22
2022-09-10T00:19:33.008Z,100467.66
2022-09-10T00:22:02.642Z,100490.00
2022-09-10T00:24:33.818Z,100483.94
2022-09-10T00:27:03.569Z,100461.78
2022-09-10T00:29:35.721Z,100490.06
2022-09-10T00:32:07.019Z,100489.25
2022-09-10T00:34:36.937Z,100485.00
2022-09-10T00:37:06.594Z,100487.53
2022-09-10T00:39:36.359Z,100484.09
2022-09-10T00:42:06.389Z,100483.28
2022-09-10T00:45:01.490Z,100486.69
2022-09-10T00:47:36.786Z,100482.44
2022-09-10T00:50:15.212Z,100468.69
2022-09-10T00:52:47.489Z,100488.34
2022-09-10T00:55:19.225Z,100485.75
2022-09-10T00:57:52.158Z,100477.19
2022-09-10T01:00:25.425Z,100489.19
2022-09-10T01:02:55.544Z,100489.16
2022-09-10T01:05:25.957Z,100496.91
2022-09-10T01:07:57.032Z,100496.91
2022-09-10T01:10:30.737Z,100501.13
2022-09-10T01:13:33.183Z,100494.28
2022-09-10T01:16:19.434Z,100499.47
2022-09-10T01:18:57.199Z,100506.31
2022-09-10T01:21:31.675Z,100499.44
2022-09-10T01:24:40.477Z,100502.88
2022-09-10T01:27:41.633Z,100499.44
2022-09-10T01:30:15.827Z,100484.94
2022-09-10T01:32:57.934Z,100499.47
2022-09-10T01:35:37.917Z,100489.22
2022-09-10T01:38:13.613Z,100483.16
2022-09-10T01:40:44.556Z,100496.84
2022-09-10T01:43:22.684Z,100468.56
2022-09-10T01:46:10.934Z,100503.72
2022-09-10T01:48:57.830Z,100490.84
2022-09-10T01:51:34.922Z,100498.56
2022-09-10T01:54:25.439Z,100482.25
2022-09-10T01:57:07.525Z,100488.25
2022-09-10T01:59:47.018Z,100498.53
2022-09-10T02:02:21.713Z,100486.59
2022-09-10T02:04:53.595Z,100484.06
2022-09-10T02:07:26.951Z,100494.31
2022-09-10T02:09:57.617Z,100492.69
2022-09-10T02:12:29.124Z,100487.53
2022-09-10T02:15:12.923Z,100490.97
2022-09-10T02:17:58.981Z,100467.91
2022-09-10T02:20:31.277Z,100482.53
2022-09-10T02:23:02.658Z,100486.00
2022-09-10T02:25:37.558Z,100488.53
2022-09-10T02:28:08.910Z,100486.00
2022-09-10T02:30:41.126Z,100489.47
2022-09-10T02:33:12.078Z,100490.28
2022-09-10T02:35:41.696Z,100497.13
2022-09-10T02:38:11.347Z,100479.13
2022-09-10T02:40:43.288Z,100491.97
2022-09-10T02:43:13.342Z,100504.84
2022-09-10T02:45:46.294Z,100506.50
2022-09-10T02:48:17.482Z,100511.63
2022-09-10T02:50:48.476Z,100508.09
2022-09-10T02:53:18.139Z,100502.06
2022-09-10T02:55:48.338Z,100507.16
2022-09-10T02:58:19.153Z,100505.44
2022-09-10T03:00:51.739Z,100504.56
2022-09-10T03:03:21.423Z,100501.19
2022-09-10T03:05:51.046Z,100509.75
2022-09-10T03:08:20.649Z,100511.47
2022-09-10T03:10:51.051Z,100495.19
2022-09-10T03:13:20.683Z,100501.97
2022-09-10T03:15:52.925Z,100508.00
2022-09-10T03:18:23.222Z,100511.44
2022-09-10T03:20:53.426Z,100511.41
2022-09-10T03:23:23.606Z,100483.97
2022-09-10T03:25:53.206Z,100498.41
2022-09-10T03:28:28.408Z,100459.88
2022-09-10T03:31:01.251Z,100498.34
2022-09-10T03:33:34.044Z,100507.78
2022-09-10T03:36:03.818Z,100502.59
2022-09-10T03:38:34.796Z,100500.00
2022-09-10T03:41:05.413Z,100482.09
2022-09-10T03:43:35.320Z,100500.06
2022-09-10T03:46:12.112Z,100476.09
2022-09-10T03:48:45.583Z,100494.09
2022-09-10T03:51:16.131Z,100506.13
2022-09-10T03:53:46.117Z,100495.84
2022-09-10T03:56:19.959Z,100495.91
2022-09-10T03:58:50.339Z,100499.25
2022-09-10T04:01:22.853Z,100494.94
2022-09-10T04:03:52.455Z,100500.16
2022-09-10T04:06:22.221Z,100475.34
2022-09-10T04:08:52.823Z,100496.75
2022-09-10T04:11:27.360Z,100490.75
2022-09-10T04:13:58.249Z,100496.00
2022-09-10T04:16:32.236Z,100495.97
2022-09-10T04:19:01.853Z,100479.72
2022-09-10T04:21:32.345Z,100470.31
2022-09-10T04:24:02.107Z,100504.56
2022-09-10T04:26:32.459Z,100510.50
2022-09-10T04:29:02.186Z,100515.69
2022-09-10T04:31:34.446Z,100525.09
2022-09-10T04:34:12.132Z,100508.06
2022-09-10T04:36:41.823Z,100509.75
2022-09-10T04:39:12.096Z,100525.16
2022-09-10T04:41:41.852Z,100520.09
2022-09-10T04:44:11.797Z,100522.59
2022-09-10T04:46:44.979Z,100534.59
2022-09-10T04:49:14.579Z,100518.31
2022-09-10T04:51:44.171Z,100525.97
2022-09-10T04:54:15.666Z,100536.22
2022-09-10T04:56:49.666Z,100533.56
2022-09-10T04:59:19.320Z,100533.56
2022-09-10T05:01:52.887Z,100533.56
2022-09-10T05:04:22.627Z,100530.13
2022-09-10T05:06:53.427Z,100519.19
2022-09-10T05:09:23.512Z,100531.94
2022-09-10T05:11:53.142Z,100532.88
2022-09-10T05:15:16.028Z,100535.47
2022-09-10T05:17:48.269Z,100536.38
2022-09-10T05:20:19.086Z,100540.66
2022-09-10T05:22:53.108Z,100534.66
2022-09-10T05:25:22.732Z,100526.97
2022-09-10T05:27:52.853Z,100535.53
2022-09-10T05:30:24.934Z,100539.03
2022-09-10T05:32:58.056Z,100544.09
2022-09-10T05:35:29.066Z,100539.84
2022-09-10T05:37:59.118Z,100522.66
2022-09-10T05:40:29.239Z,100539.72
2022-09-10T05:43:00.276Z,100528.59
2022-09-10T05:45:30.150Z,100531.91
2022-09-10T05:48:03.933Z,100540.41
2022-09-10T05:50:34.223Z,100548.22
2022-09-10T05:53:03.792Z,100534.56
2022-09-10T05:55:33.664Z,100543.97
2022-09-10T05:58:04.397Z,100545.72
2022-09-10T06:00:37.540Z,100532.00
2022-09-10T06:03:10.484Z,100543.16
2022-09-10T06:05:51.270Z,100547.50
2022-09-10T06:08:25.449Z,100541.50
2022-09-10T06:10:58.644Z,100536.31
2022-09-10T06:13:30.744Z,100534.72
2022-09-10T06:16:01.231Z,100527.84
2022-09-10T06:18:34.514Z,100532.97
2022-09-10T06:21:07.337Z,100545.78
2022-09-10T06:23:37.246Z,100516.72
2022-09-10T06:26:09.025Z,100547.50
2022-09-10T06:28:41.701Z,100503.00
2022-09-10T06:31:17.052Z,100544.06
2022-09-10T06:33:51.500Z,100532.88
2022-09-10T06:36:24.968Z,100550.72
2022-09-10T06:38:58.172Z,100521.53
2022-09-10T06:41:31.026Z,100540.28
2022-09-10T06:44:09.000Z,100531.63
2022-09-10T06:47:39.071Z,100545.31
2022-09-10T06:49:36.437Z,100528.22
2022-09-10T06:52:08.472Z,100540.28
2022-09-10T06:54:38.233Z,100538.44
2022-09-10T06:57:29.373Z,100548.63
2022-09-10T06:59:59.064Z,100546.84
2022-09-10T07:02:30.985Z,100554.50
2022-09-10T07:05:04.475Z,100544.16
2022-09-10T07:07:34.036Z,100547.56
2022-09-10T07:10:07.494Z,100514.25
2022-09-10T07:12:38.384Z,100519.34
2022-09-10T07:15:12.057Z,100551.84
2022-09-10T07:17:41.882Z,100550.91
2022-09-10T07:20:16.681Z,100562.78
2022-09-10T07:22:49.990Z,100566.88
2022-09-10T07:25:23.681Z,100564.09
2022-09-10T07:28:19.698Z,100558.19
2022-09-10T07:30:50.432Z,100573.56
2022-09-10T07:33:20.085Z,100552.91
2022-09-10T07:35:52.454Z,100575.81
2022-09-10T07:38:22.762Z,100555.31
2022-09-10T07:40:52.800Z,100582.16
2022-09-10T07:43:22.787Z,100591.84
2022-09-10T07:45:54.688Z,100594.50
2022-09-10T07:48:25.360Z,100590.03
2022-09-10T07:51:03.897Z,100601.69
2022-09-10T07:53:34.411Z,100590.41
2022-09-10T07:56:08.484Z,100600.63
2022-09-10T07:58:41.185Z,100601.38
2022-09-10T08:01:14.253Z,100599.66
2022-09-10T08:03:45.902Z,100601.56
2022-09-10T08:06:21.126Z,100597.16
2022-09-10T08:08:52.413Z,100585.13
2022-09-10T08:11:24.191Z,100548.13
2022-09-10T08:13:57.004Z,100594.06
2022-09-10T08:16:30.481Z,100600.94
2022-09-10T08:19:08.453Z,100610.09
2022-09-10T08:21:42.087Z,100606.59
2022-09-10T08:24:14.021Z,100613.19
2022-09-10T08:26:46.226Z,100617.13
2022-09-10T08:29:16.203Z,100609.50
2022-09-10T08:31:47.476Z,100622.34
2022-09-10T08:34:29.786Z,100621.72
2022-09-10T08:37:10.986Z,100625.00
2022-09-10T08:39:42.998Z,100612.66
2022-09-10T08:42:22.517Z,100604.47
2022-09-10T08:44:57.662Z,100621.97
2022-09-10T08:47:40.878Z,100624.28
2022-09-10T08:50:25.478Z,100632.16
2022-09-10T08:53:06.303Z,100630.19
2022-09-10T08:55:42.254Z,100623.22
2022-09-10T08:58:19.111Z,100606.69
2022-09-10T09:00:58.553Z,100635.41
2022-09-10T09:03:37.457Z,100619.75
2022-09-10T09:06:13.007Z,100614.72
2022-09-10T09:08:51.866Z,100625.09
2022-09-10T09:11:36.298Z,100625.25
2022-09-10T09:14:25.075Z,100629.09
2022-09-10T09:17:08.788Z,100626.69
2022-09-10T09:19:47.826Z,100611.34
2022-09-10T09:22:21.176Z,100630.97
2022-09-10T09:25:00.750Z,100631.69
2022-09-10T09:27:36.380Z,100612.06
2022-09-10T09:30:09.005Z,100630.81
2022-09-10T09:32:46.080Z,100623.84
2022-09-10T09:35:30.209Z,100621.09
2022-09-10T09:38:22.297Z,100608.81
2022-09-10T09:40:58.876Z,100631.56
2022-09-10T09:43:40.326Z,100620.97
2022-09-10T09:46:16.752Z,100622.69
2022-09-10T09:48:53.571Z,100610.88
2022-09-10T09:51:27.018Z,100628.16
2022-09-10T09:54:25.714Z,100623.16
2022-09-10T09:56:54.831Z,100617.72
2022-09-10T09:59:30.018Z,100619.34
2022-09-10T10:02:07.121Z,100631.56
2022-09-10T10:04:41.513Z,100626.13
2022-09-10T10:07:14.204Z,100616.13
2022-09-10T10:09:46.717Z,100617.28
2022-09-10T10:12:25.073Z,100621.47
2022-09-10T10:14:54.753Z,100621.97
2022-09-10T10:17:37.371Z,100608.97
2022-09-10T10:20:13.725Z,100618.69
2022-09-10T10:22:44.813Z,100622.94
2022-09-10T10:25:40.424Z,100620.44
2022-09-10T10:28:25.392Z,100616.31
2022-09-10T10:30:56.345Z,100623.75
2022-09-10T10:33:30.818Z,100614.88
2022-09-10T10:36:12.378Z,100622.22
2022-09-10T10:38:44.240Z,100629.94
2022-09-10T10:41:43.544Z,100627.13
2022-09-10T10:44:35.221Z,100618.72
2022-09-10T10:47:20.207Z,100632.38
2022-09-10T10:50:03.400Z,100625.66
2022-09-10T10:52:39.480Z,100635.84
2022-09-10T10:55:20.042Z,100627.94
2022-09-10T10:58:06.827Z,100612.47
2022-09-10T11:00:50.031Z,100629.25
2022-09-10T11:03:26.940Z,100622.75
2022-09-10T11:06:01.376Z,100621.69
2022-09-10T11:08:37.689Z,100627.16
2022-09-10T11:11:14.709Z,100610.81
2022-09-10T11:13:51.311Z,100623.38
2022-09-10T11:16:29.631Z,100614.69
2022-09-10T11:19:04.538Z,100599.16
2022-09-10T11:21:40.314Z,100613.47
2022-09-10T11:24:17.372Z,100615.69
2022-09-10T11:26:51.104Z,100607.34
2022-09-10T11:29:34.108Z,100614.28
2022-09-10T11:32:11.285Z,100614.69
2022-09-10T11:34:51.492Z,100612.81
2022-09-10T11:37:27.316Z,100614.44
2022-09-10T11:40:01.998Z,100615.16
2022-09-10T11:42:39.745Z,100608.28
2022-09-10T11:45:22.078Z,100614.31
2022-09-10T11:48:07.587Z,100606.38
2022-09-10T11:50:42.959Z,100607.19
2022-09-10T11:53:17.532Z,100604.34
2022-09-10T11:56:12.175Z,100607.53
2022-09-10T11:58:52.869Z,100587.53
2022-09-10T12:01:38.987Z,100610.47
2022-09-10T12:04:42.714Z,100613.00
2022-09-10T12:07:22.031Z,100613.59
2022-09-10T12:10:05.009Z,100612.34
2022-09-10T12:12:43.320Z,100611.00
2022-09-10T12:15:21.276Z,100605.53
2022-09-10T12:17:57.070Z,100596.69
2022-09-10T12:20:33.412Z,100613.94
2022-09-10T12:23:03.330Z,100613.59
2022-09-10T12:25:35.049Z,100612.13
2022-09-10T12:28:08.270Z,100604.91
2022-09-10T12:31:09.109Z,100607.31
2022-09-10T12:34:12.589Z,100605.03
2022-09-10T12:37:20.061Z,100605.50
2022-09-10T12:40:41.477Z,100611.31
2022-09-10T12:43:59.876Z,100607.97
2022-09-10T12:46:32.034Z,100610.66
2022-09-10T12:49:16.907Z,100606.00
2022-09-10T12:52:06.609Z,100605.44
2022-09-10T12:54:52.838Z,100569.03
2022-09-10T12:57:35.235Z,100595.31
2022-09-10T13:00:19.983Z,100599.88
2022-09-10T13:02:59.091Z,100589.78
2022-09-10T13:05:37.991Z,100582.97
2022-09-10T13:08:20.492Z,100593.13
2022-09-10T13:10:58.398Z,100590.03
2022-09-10T13:13:39.026Z,100591.97
2022-09-10T13:16:20.437Z,100587.09
2022-09-10T13:18:55.066Z,100594.16
2022-09-10T13:21:54.893Z,100585.66
2022-09-10T13:24:39.775Z,100594.81
2022-09-10T13:27:23.313Z,100591.59
2022-09-10T13:30:12.245Z,100592.09
2022-09-10T13:32:46.111Z,100593.81
2022-09-10T13:35:35.078Z,100596.13
2022-09-10T13:38:22.925Z,100575.31
2022-09-10T13:41:06.458Z,100591.59
2022-09-10T13:43:59.452Z,100595.19
2022-09-10T13:46:40.282Z,100598.81
2022-09-10T13:49:16.748Z,100592.06
2022-09-10T13:51:53.178Z,100586.56
2022-09-10T13:54:35.037Z,100587.19
2022-09-10T13:57:11.434Z,100589.44
2022-09-10T13:59:44.165Z,100582.47
2022-09-10T14:02:19.653Z,100592.03
2022-09-10T14:04:51.791Z,100590.56
2022-09-10T14:07:25.454Z,100581.28
2022-09-10T14:09:59.625Z,100567.06
2022-09-10T14:12:31.422Z,100582.75
2022-09-10T14:15:05.135Z,100573.28
2022-09-10T14:17:45.144Z,100584.81
2022-09-10T14:20:24.999Z,100591.00
2022-09-10T14:22:59.821Z,100593.06
2022-09-10T14:25:35.470Z,100599.31
2022-09-10T14:28:21.838Z,100597.81
2022-09-10T14:30:53.235Z,100598.94
2022-09-10T14:33:35.218Z,100594.88
2022-09-10T14:36:17.598Z,100596.19
2022-09-10T14:38:55.721Z,100598.94
2022-09-10T14:41:27.474Z,100592.44
2022-09-10T14:44:20.451Z,100596.56
2022-09-10T14:46:52.726Z,100597.84
2022-09-10T14:49:29.102Z,100594.63
2022-09-10T14:51:59.907Z,100603.06
2022-09-10T14:54:29.964Z,100589.88
2022-09-10T14:57:01.236Z,100596.66
2022-09-10T14:59:34.080Z,100606.16
2022-09-10T15:02:05.799Z,100605.88
2022-09-10T15:04:38.906Z,100599.06
2022-09-10T15:07:08.574Z,100597.22
2022-09-10T15:09:38.172Z,100607.47
2022-09-10T15:12:12.059Z,100574.25
2022-09-10T15:14:42.103Z,100605.28
2022-09-10T15:17:15.808Z,100595.25
2022-09-10T15:19:49.969Z,100601.38
2022-09-10T15:22:24.835Z,100595.31
2022-09-10T15:25:11.437Z,100591.19
2022-09-10T15:27:41.873Z,100591.63
2022-09-10T15:30:12.520Z,100592.81
2022-09-10T15:32:42.169Z,100596.25
2022-09-10T15:35:14.484Z,100579.25
2022-09-10T15:37:44.257Z,100613.56
2022-09-10T15:40:14.633Z,100618.66
2022-09-10T15:42:44.349Z,100614.31
2022-09-10T15:45:15.088Z,100620.84
2022-09-10T15:47:44.735Z,100618.09
2022-09-10T15:50:17.139Z,100605.06
2022-09-10T15:52:47.454Z,100606.00
2022-09-10T15:55:17.493Z,100622.13
2022-09-10T15:57:47.279Z,100618.59
2022-09-10T16:00:17.819Z,100591.97
2022-09-10T16:02:47.988Z,100622.00
2022-09-10T16:05:21.141Z,100621.97
2022-09-10T16:07:50.781Z,100627.16
2022-09-10T16:10:20.542Z,100624.59
2022-09-10T16:12:50.100Z,100619.59
2022-09-10T16:15:19.889Z,100623.84
2022-09-10T16:17:49.538Z,100627.38
2022-09-10T16:20:22.217Z,100628.88
2022-09-10T16:22:53.798Z,100628.88
2022-09-10T16:25:23.461Z,100624.47
2022-09-10T16:27:53.077Z,100632.22
2022-09-10T16:30:22.779Z,100632.31
2022-09-10T16:32:52.869Z,100642.59
2022-09-10T16:35:26.501Z,100622.75
2022-09-10T16:37:56.364Z,100634.22
2022-09-10T16:40:25.928Z,100645.53
2022-09-10T16:42:55.759Z,100632.97
2022-09-10T16:45:25.573Z,100641.84
2022-09-10T16:48:03.483Z,100644.63
2022-09-10T16:50:36.394Z,100648.22
2022-09-10T16:53:10.153Z,100627.69
2022-09-10T16:55:41.510Z,100646.47
2022-09-10T16:58:11.122Z,100648.97
2022-09-10T17:00:42.784Z,100648.97
2022-09-10T17:03:12.373Z,100654.06
2022-09-10T17:05:44.577Z,100660.13
2022-09-10T17:08:14.137Z,100652.56
2022-09-10T17:10:44.682Z,100659.47
2022-09-10T17:13:14.427Z,100657.75
2022-09-10T17:15:44.683Z,100646.69
2022-09-10T17:18:15.037Z,100655.09
2022-09-10T17:20:48.217Z,100657.63
2022-09-10T17:23:18.749Z,100658.38
2022-09-10T17:25:48.368Z,100664.41
2022-09-10T17:28:18.030Z,100660.97
2022-09-10T17:30:47.913Z,100648.34
2022-09-10T17:33:18.169Z,100667.38
2022-09-10T17:35:58.064Z,100662.28
2022-09-10T17:38:27.690Z,100664.97
2022-09-10T17:40:58.175Z,100670.84
2022-09-10T17:43:27.898Z,100668.25
2022-09-10T17:45:58.312Z,100670.06
2022-09-10T17:48:28.359Z,100665.06
2022-09-10T17:51:00.779Z,100665.16
2022-09-10T17:53:30.630Z,100675.59
2022-09-10T17:56:04.704Z,100679.88
2022-09-10T17:58:35.220Z,100678.34
2022-09-10T18:01:08.284Z,100678.41
2022-09-10T18:03:38.540Z,100688.03
2022-09-10T18:06:12.660Z,100697.44
2022-09-10T18:08:42.691Z,100704.41
2022-09-10T18:11:14.183Z,100701.75
2022-09-10T18:13:44.429Z,100708.69
2022-09-10T18:16:16.625Z,100714.81
2022-09-10T18:18:47.563Z,100722.66
2022-09-10T18:21:21.196Z,100726.09
2022-09-10T18:23:54.403Z,100724.41
2022-09-10T18:26:26.746Z,100728.75
2022-09-10T18:28:59.488Z,100734.81
2022-09-10T18:31:30.952Z,100734.09
2022-09-10T18:34:01.531Z,100740.19
2022-09-10T18:36:34.721Z,100741.84
2022-09-10T18:39:05.185Z,100743.56
2022-09-10T18:41:36.950Z,100744.34
2022-09-10T18:44:08.453Z,100741.81
2022-09-10T18:46:38.767Z,100754.00
2022-09-10T18:49:08.478Z,100751.53
2022-09-10T18:51:42.225Z,100748.94
2022-09-10T18:54:13.383Z,100757.50
2022-09-10T18:56:45.068Z,100756.63
2022-09-10T18:59:17.314Z,100767.81
2022-09-10T19:01:47.156Z,100761.03
2022-09-10T19:04:20.095Z,100771.47
2022-09-10T19:06:52.790Z,100768.88
2022-09-10T19:09:24.281Z,100770.66
2022-09-10T19:11:56.620Z,100770.59
2022-09-10T19:14:29.416Z,100765.50
2022-09-10T19:17:00.410Z,100780.09
2022-09-10T19:19:31.832Z,100772.56
2022-09-10T19:22:07.242Z,100786.28
2022-09-10T19:24:54.566Z,100790.69
2022-09-10T19:27:24.958Z,100760.84
2022-09-10T19:29:55.865Z,100805.38
2022-09-10T19:32:25.453Z,100810.50
2022-09-10T19:34:55.466Z,100807.94
2022-09-10T19:37:28.560Z,100800.16
2022-09-10T19:39:59.117Z,100807.94
2022-09-10T19:42:28.897Z,100814.88
2022-09-10T19:44:58.467Z,100818.38
2022-09-10T19:47:28.093Z,100821.00
2022-09-10T19:49:59.067Z,100822.72
2022-09-10T19:52:32.709Z,100818.38
2022-09-10T19:55:02.984Z,100810.72
2022-09-10T19:57:33.846Z,100817.50
2022-09-10T20:00:03.521Z,100826.06
2022-09-10T20:02:41.298Z,100830.38
2022-09-10T20:05:11.745Z,100806.28
2022-09-10T20:07:44.008Z,100804.59
2022-09-10T20:10:13.646Z,100827.81
2022-09-10T20:12:43.253Z,100830.50
2022-09-10T20:15:13.381Z,100831.44
2022-09-10T20:17:42.962Z,100830.66
2022-09-10T20:20:13.493Z,100831.44
2022-09-10T20:22:45.661Z,100828.84
2022-09-10T20:25:15.769Z,100825.41
2022-09-10T20:27:45.378Z,100838.41
2022-09-10T20:30:15.401Z,100840.94
2022-09-10T20:32:45.750Z,100832.44
2022-09-10T20:35:15.364Z,100839.28
2022-09-10T20:37:51.650Z,100835.88
2022-09-10T20:40:21.369Z,100841.94
2022-09-10T20:42:54.844Z,100832.56
2022-09-10T20:45:24.556Z,100835.97
2022-09-10T20:47:54.120Z,100837.59
2022-09-10T20:50:23.987Z,100822.16
2022-09-10T20:52:56.109Z,100835.94
2022-09-10T20:55:25.680Z,100837.75
2022-09-10T20:57:55.285Z,100836.94
2022-09-10T21:00:25.359Z,100828.47
2022-09-10T21:02:55.192Z,100836.22
2022-09-10T21:05:25.883Z,100838.09
2022-09-10T21:07:59.127Z,100837.31
2022-09-10T21:10:28.689Z,100835.63
2022-09-10T21:12:58.805Z,100842.53
2022-09-10T21:15:30.082Z,100842.50
2022-09-10T21:18:00.160Z,100838.25
2022-09-10T21:20:29.756Z,100837.44
2022-09-10T21:23:02.220Z,100834.88
2022-09-10T21:25:31.914Z,100848.72
2022-09-10T21:28:01.523Z,100847.03
2022-09-10T21:30:31.234Z,100843.66
2022-09-10T21:33:00.817Z,100846.25
2022-09-10T21:35:31.152Z,100854.00
2022-09-10T21:38:03.258Z,100855.78
2022-09-10T21:40:32.798Z,100856.69
2022-09-10T21:43:04.182Z,100857.59
2022-09-10T21:45:33.729Z,100853.38
2022-09-10T21:48:03.254Z,100859.38
2022-09-10T21:50:32.818Z,100865.44
2022-09-10T21:53:04.904Z,100859.41
2022-09-10T21:55:34.438Z,100864.63
2022-09-10T21:58:03.965Z,100856.97
2022-09-10T22:00:33.584Z,100873.28
2022-09-10T22:03:04.286Z,100876.81
2022-09-10T22:05:33.854Z,100874.25
2022-09-10T22:08:07.066Z,100870.84
2022-09-10T22:10:37.027Z,100884.59
2022-09-10T22:13:06.545Z,100878.56
2022-09-10T22:15:41.298Z,100879.41
2022-09-10T22:18:11.965Z,100882.91
2022-09-10T22:20:41.492Z,100892.38
2022-09-10T22:23:14.034Z,100902.69
2022-09-10T22:25:43.624Z,100902.75
2022-09-10T22:28:13.128Z,100901.03
2022-09-10T22:30:42.643Z,100909.59
2022-09-10T22:33:12.176Z,100907.00
2022-09-10T22:35:41.717Z,100914.78
2022-09-10T22:38:19.085Z,100905.34
2022-09-10T22:40:49.208Z,100907.13
2022-09-10T22:43:19.489Z,100915.72
2022-09-10T22:45:49.130Z,100910.59
2022-09-10T22:48:18.658Z,100904.59
2022-09-10T22:50:48.300Z,100904.66
2022-09-10T22:53:21.534Z,100923.53
2022-09-10T22:55:51.054Z,100922.72
2022-09-10T22:58:20.582Z,100919.31
2022-09-10T23:00:50.124Z,100931.31
2022-09-10T23:03:20.545Z,100923.59
2022-09-10T23:05:50.498Z,100926.22
2022-09-10T23:08:22.610Z,100936.53
2022-09-10T23:10:52.170Z,100937.38
2022-09-10T23:13:21.838Z,100940.84
2022-09-10T23:15:51.977Z,100940.81
2022-09-10T23:18:21.513Z,100935.69
2022-09-10T23:20:51.029Z,100946.00
2022-09-10T23:23:23.129Z,100945.13
2022-09-10T23:25:52.702Z,100948.56
2022-09-10T23:28:22.218Z,100948.56
2022-09-10T23:30:52.150Z,100941.69
2022-09-10T23:33:21.820Z,100937.38
2022-09-10T23:35:52.498Z,100945.97
2022-09-10T23:38:24.784Z,100953.69
2022-09-10T23:40:54.432Z,100956.31
2022-09-10T23:43:24.421Z,100957.19
2022-09-10T23:45:54.106Z,100953.72
2022-09-10T23:48:25.048Z,100952.91
2022-09-10T23:50:55.466Z,100964.94
2022-09-10T23:53:28.683Z,100968.38
2022-09-10T23:55:58.839Z,100961.50
2022-09-10T23:58:28.396Z,100964.97
